RCSS/TSA METAR and TAF weather

Enter ICAO airport designator
Station Type Date Time Source
RCSS METAR 2019/06/27 10:00 UTC NOAA

RCSS 271000Z 07004KT 040V100 9999 FEW020 SCT040 BKN060 29/25 Q1002 NOSIG RMK A2959


Station Type Date Time Source
RCSS Decoded METAR 2019/06/27 10:00 UTC NOAA

Sungshan / Taipei, Taiwan (RCSS) 25-04N 121-33E
Jun 27, 2019 - 06:00 AM EDT / 2019.06.27 1000 UTC
Wind: from the ENE (070 degrees) at 5 MPH (4 KT) (direction variable):0
Visibility: greater than 7 mile(s):0
Sky conditions: mostly cloudy
Temperature: 84 F (29 C)
Dew Point: 77 F (25 C)
Relative Humidity: 79%
Pressure (altimeter): 29.59 in. Hg (1002 hPa)
ob: RCSS 271000Z 07004KT 040V100 9999 FEW020 SCT040 BKN060 29/25 Q1002 NOSIG RMK A2959
cycle: 10

Station Type Date Time Source
RCSS TAF 2019/06/27 07:26 UTC NOAA

TAF
AMD RCSS 270713Z 2707/2806 09005KT 9999 FEW015 BKN032
TEMPO 2707/2709 31010KT 2300 TSRA FEW007 FEW010CB BKN017
TEMPO 2709/2713 4000 SHRA FEW010 FEW015CB BKN020
TEMPO 2800/2806 30008KT

Example: see airport list